Tinaja, New Mexico
Current Conditions -  °F | °C
As of 8:53 AM on Monday 24 Nov 2014 (Local Time) from KGUP Reporting Station
Clear Clear  
Wind Chill: 23°   Ceiling: Unl
Heat Index: 23°   Visibility: 10mi
Dew Point:   Wind: 3mph
Humidity: 40%   Direction: 320°NW
Pressure: 30.22"   Gusts: NA
Location:  35.1314°N, 108.496°W
Report Text: KGUP 241553Z AUTO 32003KT 10SM CLR M05/M17 A3022 RMK AO2 SLP306 T10501167
Loading
Personal Weather Stations






























Interactive Weather Map New forecast layout! Learn more

10-Day Weather Forecast

Advertisements
Track Severe Weather on mobile